sensor_id;sensor_type;location;lat;lon;timestamp;P1;durP1;ratioP1;P2;durP2;ratioP2
17852;SDS011;9052;53.494;14.376;2023-07-02T00:00:52;29.27;;;13.73;;
17852;SDS011;9052;53.494;14.376;2023-07-02T00:03:20;18.87;;;12.40;;
17852;SDS011;9052;53.494;14.376;2023-07-02T00:05:47;18.60;;;13.27;;
17852;SDS011;9052;53.494;14.376;2023-07-02T00:08:15;15.27;;;11.77;;
17852;SDS011;9052;53.494;14.376;2023-07-02T00:10:42;12.50;;;11.20;;
17852;SDS011;9052;53.494;14.376;2023-07-02T00:13:11;12.47;;;11.23;;
17852;SDS011;9052;53.494;14.376;2023-07-02T00:15:37;12.53;;;11.23;;
17852;SDS011;9052;53.494;14.376;2023-07-02T00:18:04;17.10;;;11.77;;
17852;SDS011;9052;53.494;14.376;2023-07-02T00:20:31;13.00;;;10.10;;
17852;SDS011;9052;53.494;14.376;2023-07-02T00:23:00;12.30;;;10.77;;
17852;SDS011;9052;53.494;14.376;2023-07-02T00:25:27;12.37;;;9.53;;
17852;SDS011;9052;53.494;14.376;2023-07-02T00:27:53;17.93;;;10.20;;
17852;SDS011;9052;53.494;14.376;2023-07-02T00:30:22;12.47;;;10.30;;
17852;SDS011;9052;53.494;14.376;2023-07-02T00:32:48;13.43;;;9.90;;
17852;SDS011;9052;53.494;14.376;2023-07-02T00:35:15;12.90;;;10.87;;
17852;SDS011;9052;53.494;14.376;2023-07-02T00:37:42;10.93;;;9.83;;
17852;SDS011;9052;53.494;14.376;2023-07-02T00:40:09;11.07;;;9.97;;
17852;SDS011;9052;53.494;14.376;2023-07-02T00:42:36;10.13;;;8.93;;
17852;SDS011;9052;53.494;14.376;2023-07-02T00:45:03;12.13;;;9.87;;
17852;SDS011;9052;53.494;14.376;2023-07-02T00:47:33;16.83;;;9.30;;
17852;SDS011;9052;53.494;14.376;2023-07-02T00:50:01;9.63;;;8.70;;
17852;SDS011;9052;53.494;14.376;2023-07-02T00:52:28;11.20;;;8.43;;
17852;SDS011;9052;53.494;14.376;2023-07-02T00:54:55;11.50;;;7.90;;
17852;SDS011;9052;53.494;14.376;2023-07-02T00:57:21;10.93;;;8.37;;
17852;SDS011;9052;53.494;14.376;2023-07-02T00:59:55;10.63;;;8.13;;
17852;SDS011;9052;53.494;14.376;2023-07-02T01:02:22;11.17;;;8.30;;
17852;SDS011;9052;53.494;14.376;2023-07-02T01:04:52;10.83;;;8.27;;
17852;SDS011;9052;53.494;14.376;2023-07-02T01:07:22;12.03;;;7.43;;
17852;SDS011;9052;53.494;14.376;2023-07-02T01:09:49;9.47;;;8.57;;
17852;SDS011;9052;53.494;14.376;2023-07-02T01:12:16;14.07;;;7.20;;
17852;SDS011;9052;53.494;14.376;2023-07-02T01:14:44;12.10;;;8.23;;
17852;SDS011;9052;53.494;14.376;2023-07-02T01:17:13;19.27;;;7.03;;
17852;SDS011;9052;53.494;14.376;2023-07-02T01:19:45;11.80;;;7.50;;
17852;SDS011;9052;53.494;14.376;2023-07-02T01:22:16;16.40;;;6.97;;
17852;SDS011;9052;53.494;14.376;2023-07-02T01:24:43;8.03;;;7.20;;
17852;SDS011;9052;53.494;14.376;2023-07-02T01:27:11;9.20;;;6.20;;
17852;SDS011;9052;53.494;14.376;2023-07-02T01:29:38;30.87;;;7.37;;
17852;SDS011;9052;53.494;14.376;2023-07-02T01:32:05;12.87;;;6.80;;
17852;SDS011;9052;53.494;14.376;2023-07-02T01:34:33;7.40;;;6.70;;
17852;SDS011;9052;53.494;14.376;2023-07-02T01:37:01;25.17;;;7.40;;
17852;SDS011;9052;53.494;14.376;2023-07-02T01:39:28;10.90;;;7.40;;
17852;SDS011;9052;53.494;14.376;2023-07-02T01:41:55;10.67;;;7.53;;
17852;SDS011;9052;53.494;14.376;2023-07-02T01:44:33;13.80;;;7.33;;
17852;SDS011;9052;53.494;14.376;2023-07-02T01:47:00;11.73;;;7.70;;
17852;SDS011;9052;53.494;14.376;2023-07-02T01:49:27;10.73;;;7.47;;
17852;SDS011;9052;53.494;14.376;2023-07-02T01:51:54;7.40;;;6.00;;
17852;SDS011;9052;53.494;14.376;2023-07-02T01:54:23;10.73;;;6.97;;
17852;SDS011;9052;53.494;14.376;2023-07-02T01:56:52;13.07;;;6.23;;
17852;SDS011;9052;53.494;14.376;2023-07-02T01:59:18;22.37;;;8.10;;
17852;SDS011;9052;53.494;14.376;2023-07-02T02:01:45;11.93;;;6.63;;
17852;SDS011;9052;53.494;14.376;2023-07-02T02:04:12;15.03;;;6.73;;
17852;SDS011;9052;53.494;14.376;2023-07-02T02:06:39;11.80;;;7.43;;
17852;SDS011;9052;53.494;14.376;2023-07-02T02:09:07;17.40;;;7.30;;
17852;SDS011;9052;53.494;14.376;2023-07-02T02:11:37;21.63;;;7.40;;
17852;SDS011;9052;53.494;14.376;2023-07-02T02:14:05;7.83;;;6.70;;
17852;SDS011;9052;53.494;14.376;2023-07-02T02:16:32;19.93;;;8.00;;
17852;SDS011;9052;53.494;14.376;2023-07-02T02:18:59;9.13;;;7.30;;
17852;SDS011;9052;53.494;14.376;2023-07-02T02:21:27;12.50;;;7.83;;
17852;SDS011;9052;53.494;14.376;2023-07-02T02:23:54;13.97;;;7.17;;
17852;SDS011;9052;53.494;14.376;2023-07-02T02:26:21;11.43;;;6.80;;
17852;SDS011;9052;53.494;14.376;2023-07-02T02:28:49;16.03;;;7.57;;
17852;SDS011;9052;53.494;14.376;2023-07-02T02:31:16;10.83;;;6.90;;
17852;SDS011;9052;53.494;14.376;2023-07-02T02:33:43;19.53;;;7.97;;
17852;SDS011;9052;53.494;14.376;2023-07-02T02:36:10;10.17;;;7.70;;
17852;SDS011;9052;53.494;14.376;2023-07-02T02:38:36;11.13;;;7.57;;
17852;SDS011;9052;53.494;14.376;2023-07-02T02:41:03;12.67;;;6.87;;
17852;SDS011;9052;53.494;14.376;2023-07-02T02:43:33;10.77;;;7.17;;
17852;SDS011;9052;53.494;14.376;2023-07-02T02:46:01;14.90;;;7.40;;
17852;SDS011;9052;53.494;14.376;2023-07-02T02:48:28;14.17;;;7.10;;
17852;SDS011;9052;53.494;14.376;2023-07-02T02:50:55;11.43;;;7.33;;
17852;SDS011;9052;53.494;14.376;2023-07-02T02:53:21;14.00;;;7.33;;
17852;SDS011;9052;53.494;14.376;2023-07-02T02:55:48;14.43;;;8.70;;
17852;SDS011;9052;53.494;14.376;2023-07-02T02:58:15;11.00;;;8.00;;
17852;SDS011;9052;53.494;14.376;2023-07-02T03:00:42;15.43;;;7.93;;
17852;SDS011;9052;53.494;14.376;2023-07-02T03:03:12;21.73;;;8.60;;
17852;SDS011;9052;53.494;14.376;2023-07-02T03:05:39;13.47;;;8.13;;
17852;SDS011;9052;53.494;14.376;2023-07-02T03:08:05;10.13;;;7.20;;
17852;SDS011;9052;53.494;14.376;2023-07-02T03:10:32;10.60;;;7.47;;
17852;SDS011;9052;53.494;14.376;2023-07-02T03:12:59;20.37;;;7.97;;
17852;SDS011;9052;53.494;14.376;2023-07-02T03:15:26;10.97;;;7.63;;
17852;SDS011;9052;53.494;14.376;2023-07-02T03:17:52;22.73;;;9.57;;
17852;SDS011;9052;53.494;14.376;2023-07-02T03:20:21;12.27;;;9.50;;
17852;SDS011;9052;53.494;14.376;2023-07-02T03:22:47;24.67;;;9.07;;
17852;SDS011;9052;53.494;14.376;2023-07-02T03:25:14;10.70;;;8.53;;
17852;SDS011;9052;53.494;14.376;2023-07-02T03:27:41;15.00;;;9.10;;
17852;SDS011;9052;53.494;14.376;2023-07-02T03:30:08;14.77;;;10.60;;
17852;SDS011;9052;53.494;14.376;2023-07-02T03:32:35;32.80;;;9.40;;
17852;SDS011;9052;53.494;14.376;2023-07-02T03:35:02;18.93;;;9.80;;
17852;SDS011;9052;53.494;14.376;2023-07-02T03:37:30;19.87;;;10.43;;
17852;SDS011;9052;53.494;14.376;2023-07-02T03:39:57;20.30;;;10.43;;
17852;SDS011;9052;53.494;14.376;2023-07-02T03:42:24;26.13;;;9.80;;
17852;SDS011;9052;53.494;14.376;2023-07-02T03:44:51;16.33;;;8.50;;
17852;SDS011;9052;53.494;14.376;2023-07-02T03:47:18;15.90;;;9.50;;
17852;SDS011;9052;53.494;14.376;2023-07-02T03:49:45;11.80;;;7.57;;
17852;SDS011;9052;53.494;14.376;2023-07-02T03:52:12;13.43;;;8.20;;
17852;SDS011;9052;53.494;14.376;2023-07-02T03:54:40;16.90;;;7.70;;
17852;SDS011;9052;53.494;14.376;2023-07-02T03:57:07;7.13;;;5.83;;
17852;SDS011;9052;53.494;14.376;2023-07-02T03:59:34;5.03;;;4.53;;
17852;SDS011;9052;53.494;14.376;2023-07-02T04:02:01;7.63;;;4.73;;
17852;SDS011;9052;53.494;14.376;2023-07-02T04:04:28;11.97;;;4.43;;
17852;SDS011;9052;53.494;14.376;2023-07-02T04:06:54;3.87;;;3.30;;
17852;SDS011;9052;53.494;14.376;2023-07-02T04:09:21;5.67;;;3.00;;
17852;SDS011;9052;53.494;14.376;2023-07-02T04:11:50;15.20;;;2.87;;
17852;SDS011;9052;53.494;14.376;2023-07-02T04:14:16;2.73;;;2.53;;
17852;SDS011;9052;53.494;14.376;2023-07-02T04:16:43;2.77;;;2.57;;
17852;SDS011;9052;53.494;14.376;2023-07-02T04:19:10;4.77;;;2.73;;
17852;SDS011;9052;53.494;14.376;2023-07-02T04:21:37;2.97;;;2.20;;
17852;SDS011;9052;53.494;14.376;2023-07-02T04:24:04;7.10;;;2.50;;
17852;SDS011;9052;53.494;14.376;2023-07-02T04:26:31;4.57;;;2.27;;
17852;SDS011;9052;53.494;14.376;2023-07-02T04:28:59;2.97;;;2.40;;
17852;SDS011;9052;53.494;14.376;2023-07-02T04:31:26;6.40;;;2.27;;
17852;SDS011;9052;53.494;14.376;2023-07-02T04:33:52;8.90;;;2.47;;
17852;SDS011;9052;53.494;14.376;2023-07-02T04:36:19;5.43;;;3.20;;
17852;SDS011;9052;53.494;14.376;2023-07-02T04:38:46;7.70;;;3.20;;
17852;SDS011;9052;53.494;14.376;2023-07-02T04:41:13;3.53;;;2.77;;
17852;SDS011;9052;53.494;14.376;2023-07-02T04:43:39;6.30;;;2.00;;
17852;SDS011;9052;53.494;14.376;2023-07-02T04:46:07;2.80;;;2.60;;
17852;SDS011;9052;53.494;14.376;2023-07-02T04:48:34;8.83;;;2.40;;
17852;SDS011;9052;53.494;14.376;2023-07-02T04:51:01;7.03;;;2.60;;
17852;SDS011;9052;53.494;14.376;2023-07-02T04:53:27;9.73;;;2.63;;
17852;SDS011;9052;53.494;14.376;2023-07-02T04:55:54;7.17;;;2.77;;
17852;SDS011;9052;53.494;14.376;2023-07-02T04:58:21;7.00;;;2.33;;
17852;SDS011;9052;53.494;14.376;2023-07-02T05:00:48;5.23;;;2.43;;
17852;SDS011;9052;53.494;14.376;2023-07-02T05:03:16;3.10;;;2.17;;
17852;SDS011;9052;53.494;14.376;2023-07-02T05:05:43;6.60;;;2.90;;
17852;SDS011;9052;53.494;14.376;2023-07-02T05:08:10;6.87;;;2.57;;
17852;SDS011;9052;53.494;14.376;2023-07-02T05:10:37;2.90;;;2.30;;
17852;SDS011;9052;53.494;14.376;2023-07-02T05:13:03;4.40;;;2.70;;
17852;SDS011;9052;53.494;14.376;2023-07-02T05:15:30;8.97;;;2.60;;
17852;SDS011;9052;53.494;14.376;2023-07-02T05:17:57;5.40;;;2.30;;
17852;SDS011;9052;53.494;14.376;2023-07-02T05:20:25;9.10;;;3.00;;
17852;SDS011;9052;53.494;14.376;2023-07-02T05:22:52;4.73;;;2.53;;
17852;SDS011;9052;53.494;14.376;2023-07-02T05:25:19;6.77;;;2.90;;
17852;SDS011;9052;53.494;14.376;2023-07-02T05:27:45;4.13;;;2.27;;
17852;SDS011;9052;53.494;14.376;2023-07-02T05:30:13;13.33;;;2.90;;
17852;SDS011;9052;53.494;14.376;2023-07-02T05:32:39;8.80;;;3.20;;
17852;SDS011;9052;53.494;14.376;2023-07-02T05:35:06;4.67;;;2.97;;
17852;SDS011;9052;53.494;14.376;2023-07-02T05:37:35;5.57;;;2.90;;
17852;SDS011;9052;53.494;14.376;2023-07-02T05:40:02;17.33;;;3.03;;
17852;SDS011;9052;53.494;14.376;2023-07-02T05:42:29;6.27;;;3.10;;
17852;SDS011;9052;53.494;14.376;2023-07-02T05:44:55;9.70;;;2.97;;
17852;SDS011;9052;53.494;14.376;2023-07-02T05:47:22;5.87;;;3.30;;
17852;SDS011;9052;53.494;14.376;2023-07-02T05:49:49;5.00;;;3.13;;
17852;SDS011;9052;53.494;14.376;2023-07-02T05:52:15;8.30;;;3.03;;
17852;SDS011;9052;53.494;14.376;2023-07-02T05:54:45;17.90;;;3.90;;
17852;SDS011;9052;53.494;14.376;2023-07-02T05:57:12;6.77;;;3.53;;
17852;SDS011;9052;53.494;14.376;2023-07-02T05:59:39;4.83;;;3.37;;
17852;SDS011;9052;53.494;14.376;2023-07-02T06:02:06;8.03;;;3.30;;
17852;SDS011;9052;53.494;14.376;2023-07-02T06:04:33;13.03;;;3.20;;
17852;SDS011;9052;53.494;14.376;2023-07-02T06:07:00;6.00;;;3.10;;
17852;SDS011;9052;53.494;14.376;2023-07-02T06:09:27;9.23;;;3.27;;
17852;SDS011;9052;53.494;14.376;2023-07-02T06:11:55;4.40;;;2.90;;
17852;SDS011;9052;53.494;14.376;2023-07-02T06:14:21;3.10;;;2.67;;
17852;SDS011;9052;53.494;14.376;2023-07-02T06:16:50;4.60;;;4.00;;
17852;SDS011;9052;53.494;14.376;2023-07-02T06:19:17;8.17;;;3.30;;
17852;SDS011;9052;53.494;14.376;2023-07-02T06:21:44;15.67;;;2.33;;
17852;SDS011;9052;53.494;14.376;2023-07-02T06:24:10;7.10;;;2.60;;
17852;SDS011;9052;53.494;14.376;2023-07-02T06:26:37;13.80;;;2.97;;
17852;SDS011;9052;53.494;14.376;2023-07-02T06:29:05;10.53;;;3.60;;
17852;SDS011;9052;53.494;14.376;2023-07-02T06:31:32;5.53;;;2.93;;
17852;SDS011;9052;53.494;14.376;2023-07-02T06:33:59;10.83;;;3.07;;
17852;SDS011;9052;53.494;14.376;2023-07-02T06:36:25;2.90;;;2.60;;
17852;SDS011;9052;53.494;14.376;2023-07-02T06:38:52;4.57;;;2.77;;
17852;SDS011;9052;53.494;14.376;2023-07-02T06:41:19;8.97;;;2.70;;
17852;SDS011;9052;53.494;14.376;2023-07-02T06:43:45;5.33;;;3.13;;
17852;SDS011;9052;53.494;14.376;2023-07-02T06:46:13;7.80;;;3.13;;
17852;SDS011;9052;53.494;14.376;2023-07-02T06:48:40;4.90;;;2.70;;
17852;SDS011;9052;53.494;14.376;2023-07-02T06:51:07;8.70;;;3.30;;
17852;SDS011;9052;53.494;14.376;2023-07-02T06:53:34;3.90;;;3.13;;
17852;SDS011;9052;53.494;14.376;2023-07-02T06:56:01;6.40;;;3.43;;
17852;SDS011;9052;53.494;14.376;2023-07-02T06:58:27;9.93;;;2.97;;
17852;SDS011;9052;53.494;14.376;2023-07-02T07:00:54;5.13;;;2.80;;
17852;SDS011;9052;53.494;14.376;2023-07-02T07:03:22;8.83;;;2.90;;
17852;SDS011;9052;53.494;14.376;2023-07-02T07:05:49;12.93;;;3.40;;
17852;SDS011;9052;53.494;14.376;2023-07-02T07:08:16;5.70;;;2.90;;
17852;SDS011;9052;53.494;14.376;2023-07-02T07:10:43;5.03;;;3.30;;
17852;SDS011;9052;53.494;14.376;2023-07-02T07:13:10;10.53;;;2.87;;
17852;SDS011;9052;53.494;14.376;2023-07-02T07:15:37;3.60;;;2.93;;
17852;SDS011;9052;53.494;14.376;2023-07-02T07:18:04;11.53;;;3.03;;
17852;SDS011;9052;53.494;14.376;2023-07-02T07:20:33;17.93;;;3.10;;
17852;SDS011;9052;53.494;14.376;2023-07-02T07:23:01;5.97;;;4.00;;
17852;SDS011;9052;53.494;14.376;2023-07-02T07:25:28;7.90;;;2.90;;
17852;SDS011;9052;53.494;14.376;2023-07-02T07:27:55;9.60;;;3.80;;
17852;SDS011;9052;53.494;14.376;2023-07-02T07:30:21;5.37;;;3.70;;
17852;SDS011;9052;53.494;14.376;2023-07-02T07:32:49;9.53;;;3.17;;
17852;SDS011;9052;53.494;14.376;2023-07-02T07:35:16;5.73;;;2.80;;
17852;SDS011;9052;53.494;14.376;2023-07-02T07:37:45;11.03;;;3.40;;
17852;SDS011;9052;53.494;14.376;2023-07-02T07:40:12;3.77;;;2.53;;
17852;SDS011;9052;53.494;14.376;2023-07-02T07:42:39;3.30;;;3.07;;
17852;SDS011;9052;53.494;14.376;2023-07-02T07:45:06;19.90;;;4.50;;
17852;SDS011;9052;53.494;14.376;2023-07-02T07:47:34;3.07;;;2.70;;
17852;SDS011;9052;53.494;14.376;2023-07-02T07:50:00;7.77;;;3.97;;
17852;SDS011;9052;53.494;14.376;2023-07-02T07:52:27;9.03;;;4.50;;
17852;SDS011;9052;53.494;14.376;2023-07-02T07:54:55;6.60;;;3.70;;
17852;SDS011;9052;53.494;14.376;2023-07-02T07:57:22;7.40;;;3.80;;
17852;SDS011;9052;53.494;14.376;2023-07-02T07:59:49;5.70;;;4.23;;
17852;SDS011;9052;53.494;14.376;2023-07-02T08:02:15;13.70;;;3.73;;
17852;SDS011;9052;53.494;14.376;2023-07-02T08:04:42;4.47;;;3.63;;
17852;SDS011;9052;53.494;14.376;2023-07-02T08:07:09;7.70;;;3.53;;
17852;SDS011;9052;53.494;14.376;2023-07-02T08:09:36;11.20;;;4.20;;
17852;SDS011;9052;53.494;14.376;2023-07-02T08:12:05;11.27;;;5.13;;
17852;SDS011;9052;53.494;14.376;2023-07-02T08:14:33;8.87;;;4.33;;
17852;SDS011;9052;53.494;14.376;2023-07-02T08:17:00;8.40;;;4.33;;
17852;SDS011;9052;53.494;14.376;2023-07-02T08:19:27;8.83;;;4.07;;
17852;SDS011;9052;53.494;14.376;2023-07-02T08:21:54;10.00;;;4.10;;
17852;SDS011;9052;53.494;14.376;2023-07-02T08:24:21;12.03;;;4.43;;
17852;SDS011;9052;53.494;14.376;2023-07-02T08:26:47;10.93;;;3.67;;
17852;SDS011;9052;53.494;14.376;2023-07-02T08:29:16;6.40;;;3.73;;
17852;SDS011;9052;53.494;14.376;2023-07-02T08:31:42;15.03;;;4.80;;
17852;SDS011;9052;53.494;14.376;2023-07-02T08:34:09;8.00;;;4.77;;
17852;SDS011;9052;53.494;14.376;2023-07-02T08:36:36;21.73;;;5.33;;
17852;SDS011;9052;53.494;14.376;2023-07-02T08:39:03;8.57;;;4.70;;
17852;SDS011;9052;53.494;14.376;2023-07-02T08:41:29;11.30;;;4.33;;
17852;SDS011;9052;53.494;14.376;2023-07-02T08:43:57;9.50;;;4.33;;
17852;SDS011;9052;53.494;14.376;2023-07-02T08:46:31;6.60;;;3.13;;
17852;SDS011;9052;53.494;14.376;2023-07-02T08:48:57;17.17;;;4.30;;
17852;SDS011;9052;53.494;14.376;2023-07-02T08:51:24;7.20;;;3.53;;
17852;SDS011;9052;53.494;14.376;2023-07-02T08:53:51;11.27;;;6.17;;
17852;SDS011;9052;53.494;14.376;2023-07-02T08:56:18;7.20;;;4.13;;
17852;SDS011;9052;53.494;14.376;2023-07-02T08:58:44;8.90;;;4.50;;
17852;SDS011;9052;53.494;14.376;2023-07-02T09:01:13;8.33;;;5.07;;
17852;SDS011;9052;53.494;14.376;2023-07-02T09:03:41;9.27;;;4.50;;
17852;SDS011;9052;53.494;14.376;2023-07-02T09:06:08;7.20;;;4.00;;
17852;SDS011;9052;53.494;14.376;2023-07-02T09:08:36;9.47;;;4.40;;
17852;SDS011;9052;53.494;14.376;2023-07-02T09:11:07;13.87;;;5.23;;
17852;SDS011;9052;53.494;14.376;2023-07-02T09:13:46;13.10;;;4.67;;
17852;SDS011;9052;53.494;14.376;2023-07-02T09:16:23;10.77;;;4.50;;
17852;SDS011;9052;53.494;14.376;2023-07-02T09:19:02;9.50;;;4.80;;
17852;SDS011;9052;53.494;14.376;2023-07-02T09:21:39;14.80;;;5.43;;
17852;SDS011;9052;53.494;14.376;2023-07-02T09:24:13;12.07;;;5.17;;
17852;SDS011;9052;53.494;14.376;2023-07-02T09:26:44;13.50;;;4.67;;
17852;SDS011;9052;53.494;14.376;2023-07-02T09:29:11;15.03;;;5.70;;
17852;SDS011;9052;53.494;14.376;2023-07-02T09:31:44;17.63;;;4.90;;
17852;SDS011;9052;53.494;14.376;2023-07-02T09:34:13;11.47;;;5.57;;
17852;SDS011;9052;53.494;14.376;2023-07-02T09:36:41;20.83;;;5.53;;
17852;SDS011;9052;53.494;14.376;2023-07-02T09:39:08;13.40;;;5.30;;
17852;SDS011;9052;53.494;14.376;2023-07-02T09:41:38;12.37;;;5.43;;
17852;SDS011;9052;53.494;14.376;2023-07-02T09:44:05;9.87;;;4.27;;
17852;SDS011;9052;53.494;14.376;2023-07-02T09:46:32;13.63;;;5.10;;
17852;SDS011;9052;53.494;14.376;2023-07-02T09:49:00;15.30;;;5.20;;
17852;SDS011;9052;53.494;14.376;2023-07-02T09:51:28;16.50;;;6.00;;
17852;SDS011;9052;53.494;14.376;2023-07-02T09:53:55;16.40;;;5.40;;
17852;SDS011;9052;53.494;14.376;2023-07-02T09:56:22;18.10;;;6.03;;
17852;SDS011;9052;53.494;14.376;2023-07-02T09:58:48;15.00;;;5.57;;
17852;SDS011;9052;53.494;14.376;2023-07-02T10:01:15;13.13;;;5.97;;
17852;SDS011;9052;53.494;14.376;2023-07-02T10:03:42;12.03;;;5.70;;
17852;SDS011;9052;53.494;14.376;2023-07-02T10:06:09;11.50;;;5.63;;
17852;SDS011;9052;53.494;14.376;2023-07-02T10:08:37;7.67;;;4.93;;
17852;SDS011;9052;53.494;14.376;2023-07-02T10:11:08;14.70;;;6.13;;
17852;SDS011;9052;53.494;14.376;2023-07-02T10:13:37;9.63;;;6.00;;
17852;SDS011;9052;53.494;14.376;2023-07-02T10:16:04;12.70;;;5.67;;
17852;SDS011;9052;53.494;14.376;2023-07-02T10:18:32;14.53;;;5.77;;
17852;SDS011;9052;53.494;14.376;2023-07-02T10:20:59;18.07;;;5.93;;
17852;SDS011;9052;53.494;14.376;2023-07-02T10:23:32;20.53;;;6.20;;
17852;SDS011;9052;53.494;14.376;2023-07-02T10:26:10;10.13;;;5.40;;
17852;SDS011;9052;53.494;14.376;2023-07-02T10:28:39;16.10;;;6.10;;
17852;SDS011;9052;53.494;14.376;2023-07-02T10:31:16;25.53;;;5.70;;
17852;SDS011;9052;53.494;14.376;2023-07-02T10:33:43;19.73;;;5.60;;
17852;SDS011;9052;53.494;14.376;2023-07-02T10:36:17;13.03;;;5.70;;
17852;SDS011;9052;53.494;14.376;2023-07-02T10:38:44;19.37;;;6.20;;
17852;SDS011;9052;53.494;14.376;2023-07-02T10:41:22;12.10;;;5.50;;
17852;SDS011;9052;53.494;14.376;2023-07-02T10:43:49;17.90;;;6.07;;
17852;SDS011;9052;53.494;14.376;2023-07-02T10:46:18;13.10;;;6.47;;
17852;SDS011;9052;53.494;14.376;2023-07-02T10:48:54;16.07;;;6.37;;
17852;SDS011;9052;53.494;14.376;2023-07-02T10:51:22;12.33;;;6.33;;
17852;SDS011;9052;53.494;14.376;2023-07-02T10:53:58;13.60;;;5.50;;
17852;SDS011;9052;53.494;14.376;2023-07-02T10:56:26;17.67;;;7.10;;
17852;SDS011;9052;53.494;14.376;2023-07-02T10:58:53;23.60;;;6.43;;
17852;SDS011;9052;53.494;14.376;2023-07-02T11:01:24;12.30;;;6.90;;
17852;SDS011;9052;53.494;14.376;2023-07-02T11:03:58;14.00;;;7.63;;
17852;SDS011;9052;53.494;14.376;2023-07-02T11:06:25;9.07;;;6.30;;
17852;SDS011;9052;53.494;14.376;2023-07-02T11:08:53;11.00;;;5.83;;
17852;SDS011;9052;53.494;14.376;2023-07-02T11:11:20;10.23;;;5.77;;
17852;SDS011;9052;53.494;14.376;2023-07-02T11:13:50;8.20;;;5.77;;
17852;SDS011;9052;53.494;14.376;2023-07-02T11:16:19;11.70;;;6.00;;
17852;SDS011;9052;53.494;14.376;2023-07-02T11:18:47;16.13;;;6.60;;
17852;SDS011;9052;53.494;14.376;2023-07-02T11:21:14;11.40;;;6.73;;
17852;SDS011;9052;53.494;14.376;2023-07-02T11:23:41;13.17;;;6.60;;
17852;SDS011;9052;53.494;14.376;2023-07-02T11:26:08;7.13;;;5.83;;
17852;SDS011;9052;53.494;14.376;2023-07-02T11:28:35;12.10;;;6.67;;
17852;SDS011;9052;53.494;14.376;2023-07-02T11:31:03;21.43;;;6.57;;
17852;SDS011;9052;53.494;14.376;2023-07-02T11:33:34;10.67;;;5.83;;
17852;SDS011;9052;53.494;14.376;2023-07-02T11:36:01;16.60;;;7.20;;
17852;SDS011;9052;53.494;14.376;2023-07-02T11:38:29;9.57;;;5.83;;
17852;SDS011;9052;53.494;14.376;2023-07-02T11:40:55;13.33;;;6.90;;
17852;SDS011;9052;53.494;14.376;2023-07-02T11:43:22;14.57;;;7.10;;
17852;SDS011;9052;53.494;14.376;2023-07-02T11:45:49;18.87;;;6.83;;
17852;SDS011;9052;53.494;14.376;2023-07-02T11:48:17;14.80;;;7.23;;
17852;SDS011;9052;53.494;14.376;2023-07-02T11:50:44;13.03;;;6.97;;
17852;SDS011;9052;53.494;14.376;2023-07-02T11:53:11;16.17;;;6.43;;
17852;SDS011;9052;53.494;14.376;2023-07-02T11:55:38;13.80;;;8.00;;
17852;SDS011;9052;53.494;14.376;2023-07-02T11:58:05;19.50;;;6.60;;
17852;SDS011;9052;53.494;14.376;2023-07-02T12:00:32;12.13;;;6.20;;
17852;SDS011;9052;53.494;14.376;2023-07-02T12:02:58;10.87;;;7.30;;
17852;SDS011;9052;53.494;14.376;2023-07-02T12:05:27;18.00;;;7.33;;
17852;SDS011;9052;53.494;14.376;2023-07-02T12:07:53;8.67;;;5.30;;
17852;SDS011;9052;53.494;14.376;2023-07-02T12:10:20;13.50;;;5.97;;
17852;SDS011;9052;53.494;14.376;2023-07-02T12:12:47;13.83;;;7.63;;
17852;SDS011;9052;53.494;14.376;2023-07-02T12:15:14;13.60;;;7.63;;
17852;SDS011;9052;53.494;14.376;2023-07-02T12:17:40;14.90;;;6.50;;
17852;SDS011;9052;53.494;14.376;2023-07-02T12:20:07;16.63;;;7.57;;
17852;SDS011;9052;53.494;14.376;2023-07-02T12:22:36;14.43;;;6.90;;
17852;SDS011;9052;53.494;14.376;2023-07-02T12:25:03;15.33;;;7.13;;
17852;SDS011;9052;53.494;14.376;2023-07-02T12:27:31;18.53;;;6.43;;
17852;SDS011;9052;53.494;14.376;2023-07-02T12:29:57;21.53;;;7.10;;
17852;SDS011;9052;53.494;14.376;2023-07-02T12:32:24;14.53;;;6.57;;
17852;SDS011;9052;53.494;14.376;2023-07-02T12:34:51;13.67;;;6.67;;
17852;SDS011;9052;53.494;14.376;2023-07-02T12:37:18;8.43;;;6.00;;
17852;SDS011;9052;53.494;14.376;2023-07-02T12:39:47;17.37;;;7.03;;
17852;SDS011;9052;53.494;14.376;2023-07-02T12:42:14;18.83;;;6.30;;
17852;SDS011;9052;53.494;14.376;2023-07-02T12:44:40;11.47;;;6.27;;
17852;SDS011;9052;53.494;14.376;2023-07-02T12:47:07;25.20;;;6.90;;
17852;SDS011;9052;53.494;14.376;2023-07-02T12:49:34;14.50;;;6.57;;
17852;SDS011;9052;53.494;14.376;2023-07-02T12:52:02;10.93;;;6.93;;
17852;SDS011;9052;53.494;14.376;2023-07-02T12:54:29;11.23;;;5.97;;
17852;SDS011;9052;53.494;14.376;2023-07-02T12:56:57;11.83;;;5.93;;
17852;SDS011;9052;53.494;14.376;2023-07-02T12:59:24;12.17;;;6.43;;
17852;SDS011;9052;53.494;14.376;2023-07-02T13:01:50;14.47;;;6.80;;
17852;SDS011;9052;53.494;14.376;2023-07-02T13:04:17;11.80;;;6.47;;
17852;SDS011;9052;53.494;14.376;2023-07-02T13:06:44;14.60;;;6.53;;
17852;SDS011;9052;53.494;14.376;2023-07-02T13:09:11;14.97;;;7.07;;
17852;SDS011;9052;53.494;14.376;2023-07-02T13:11:38;12.40;;;6.10;;
17852;SDS011;9052;53.494;14.376;2023-07-02T13:14:06;11.20;;;6.20;;
17852;SDS011;9052;53.494;14.376;2023-07-02T13:16:33;10.33;;;5.90;;
17852;SDS011;9052;53.494;14.376;2023-07-02T13:18:59;19.07;;;6.90;;
17852;SDS011;9052;53.494;14.376;2023-07-02T13:21:27;11.60;;;6.50;;
17852;SDS011;9052;53.494;14.376;2023-07-02T13:23:54;19.50;;;5.60;;
17852;SDS011;9052;53.494;14.376;2023-07-02T13:26:21;12.70;;;5.97;;
17852;SDS011;9052;53.494;14.376;2023-07-02T13:28:47;13.30;;;6.30;;
17852;SDS011;9052;53.494;14.376;2023-07-02T13:31:15;23.13;;;6.90;;
17852;SDS011;9052;53.494;14.376;2023-07-02T13:33:43;20.30;;;7.77;;
17852;SDS011;9052;53.494;14.376;2023-07-02T13:36:11;20.53;;;7.27;;
17852;SDS011;9052;53.494;14.376;2023-07-02T13:38:38;17.87;;;6.13;;
17852;SDS011;9052;53.494;14.376;2023-07-02T13:41:04;14.37;;;6.40;;
17852;SDS011;9052;53.494;14.376;2023-07-02T13:43:31;10.43;;;6.73;;
17852;SDS011;9052;53.494;14.376;2023-07-02T13:45:58;15.63;;;7.10;;
17852;SDS011;9052;53.494;14.376;2023-07-02T13:48:26;18.80;;;6.93;;
17852;SDS011;9052;53.494;14.376;2023-07-02T13:50:53;10.97;;;6.17;;
17852;SDS011;9052;53.494;14.376;2023-07-02T13:53:20;12.17;;;5.90;;
17852;SDS011;9052;53.494;14.376;2023-07-02T13:55:46;12.83;;;5.97;;
17852;SDS011;9052;53.494;14.376;2023-07-02T13:58:13;13.27;;;5.90;;
17852;SDS011;9052;53.494;14.376;2023-07-02T14:00:41;20.83;;;7.10;;
17852;SDS011;9052;53.494;14.376;2023-07-02T14:03:08;8.70;;;5.40;;
17852;SDS011;9052;53.494;14.376;2023-07-02T14:05:35;11.27;;;5.30;;
17852;SDS011;9052;53.494;14.376;2023-07-02T14:08:02;22.50;;;6.60;;
17852;SDS011;9052;53.494;14.376;2023-07-02T14:10:28;8.30;;;5.60;;
17852;SDS011;9052;53.494;14.376;2023-07-02T14:12:55;18.77;;;6.90;;
17852;SDS011;9052;53.494;14.376;2023-07-02T14:15:23;23.13;;;6.10;;
17852;SDS011;9052;53.494;14.376;2023-07-02T14:17:52;11.17;;;5.57;;
17852;SDS011;9052;53.494;14.376;2023-07-02T14:20:19;11.50;;;6.00;;
17852;SDS011;9052;53.494;14.376;2023-07-02T14:22:46;15.73;;;6.00;;
17852;SDS011;9052;53.494;14.376;2023-07-02T14:25:12;23.47;;;6.07;;
17852;SDS011;9052;53.494;14.376;2023-07-02T14:27:39;13.00;;;5.90;;
17852;SDS011;9052;53.494;14.376;2023-07-02T14:30:07;14.23;;;6.03;;
17852;SDS011;9052;53.494;14.376;2023-07-02T14:32:34;17.30;;;5.47;;
17852;SDS011;9052;53.494;14.376;2023-07-02T14:35:03;13.80;;;6.20;;
17852;SDS011;9052;53.494;14.376;2023-07-02T14:37:30;11.03;;;6.30;;
17852;SDS011;9052;53.494;14.376;2023-07-02T14:39:57;18.93;;;5.67;;